createdAt,value
2019-05-14T00:00:52.250Z,0.00
2019-05-14T00:01:51.497Z,0.00
2019-05-14T00:02:52.047Z,0.00
2019-05-14T00:03:51.588Z,0.00
2019-05-14T00:04:51.349Z,0.00
2019-05-14T00:05:51.694Z,0.00
2019-05-14T00:06:51.917Z,0.00
2019-05-14T00:07:52.132Z,0.00
2019-05-14T00:08:52.190Z,0.00
2019-05-14T00:09:51.915Z,0.00
2019-05-14T00:10:52.395Z,0.00
2019-05-14T00:11:51.256Z,0.00
2019-05-14T00:12:51.227Z,0.00
2019-05-14T00:13:52.024Z,0.00
2019-05-14T00:14:51.656Z,0.00
2019-05-14T00:15:51.953Z,0.00
2019-05-14T00:16:51.351Z,0.00
2019-05-14T00:17:52.029Z,0.00
2019-05-14T00:18:51.163Z,0.00
2019-05-14T00:20:05.891Z,0.00
2019-05-14T00:20:51.177Z,0.00
2019-05-14T00:21:51.305Z,0.00
2019-05-14T00:22:49.323Z,0.00
2019-05-14T00:23:51.234Z,0.00
2019-05-14T00:24:49.153Z,0.00
2019-05-14T00:25:49.122Z,0.00
2019-05-14T00:26:51.559Z,0.00
2019-05-14T00:27:49.000Z,0.00
2019-05-14T00:28:51.053Z,0.00
2019-05-14T00:29:48.737Z,0.00
2019-05-14T00:30:48.738Z,0.00
2019-05-14T00:31:48.566Z,0.00
2019-05-14T00:32:48.477Z,0.00
2019-05-14T00:33:48.420Z,0.00
2019-05-14T00:34:48.312Z,0.00
2019-05-14T00:35:48.242Z,0.00
2019-05-14T00:36:48.238Z,0.00
2019-05-14T00:37:48.054Z,0.00
2019-05-14T00:38:47.976Z,0.00
2019-05-14T00:39:47.959Z,0.00
2019-05-14T00:40:47.859Z,0.00
2019-05-14T00:41:47.756Z,0.00
2019-05-14T00:42:47.630Z,0.00
2019-05-14T00:43:47.574Z,0.00
2019-05-14T00:44:54.371Z,0.00
2019-05-14T00:45:47.517Z,0.00
2019-05-14T00:46:47.297Z,0.00
2019-05-14T00:47:47.289Z,0.00
2019-05-14T00:48:47.129Z,0.00
2019-05-14T00:49:47.046Z,0.00
2019-05-14T00:50:47.036Z,0.00
2019-05-14T00:51:46.875Z,0.00
2019-05-14T00:52:46.792Z,0.00
2019-05-14T00:53:47.746Z,0.00
2019-05-14T00:54:46.622Z,0.00
2019-05-14T00:55:46.553Z,0.00
2019-05-14T00:56:46.452Z,0.00
2019-05-14T00:57:46.437Z,0.00
2019-05-14T00:58:46.284Z,0.00
2019-05-14T00:59:46.197Z,0.00
2019-05-14T01:00:46.180Z,0.00
2019-05-14T01:01:46.064Z,0.00
2019-05-14T01:02:46.065Z,0.00
2019-05-14T01:03:45.864Z,0.00
2019-05-14T01:04:45.775Z,0.00
2019-05-14T01:05:45.720Z,0.00
2019-05-14T01:06:45.628Z,0.00
2019-05-14T01:07:45.528Z,0.00
2019-05-14T01:08:45.487Z,0.00
2019-05-14T01:09:45.356Z,0.00
2019-05-14T01:10:45.275Z,0.00
2019-05-14T01:11:45.232Z,0.00
2019-05-14T01:12:45.099Z,0.00
2019-05-14T01:13:45.013Z,0.00
2019-05-14T01:14:45.015Z,0.00
2019-05-14T01:15:44.846Z,0.00
2019-05-14T01:16:46.816Z,0.00
2019-05-14T01:17:44.678Z,0.00
2019-05-14T01:18:44.637Z,0.00
2019-05-14T01:19:44.513Z,0.00
2019-05-14T01:20:44.441Z,0.00
2019-05-14T01:21:44.354Z,0.00
2019-05-14T01:22:45.275Z,0.00
2019-05-14T01:23:44.179Z,0.00
2019-05-14T01:24:44.163Z,0.00
2019-05-14T01:25:44.009Z,0.00
2019-05-14T01:26:43.929Z,0.00
2019-05-14T01:27:45.926Z,0.00
2019-05-14T01:28:43.748Z,0.00
2019-05-14T01:29:43.663Z,0.00
2019-05-14T01:30:43.693Z,0.00
2019-05-14T01:31:43.508Z,0.00
2019-05-14T01:32:43.502Z,0.00
2019-05-14T01:33:43.325Z,0.00
2019-05-14T01:34:43.312Z,0.00
2019-05-14T01:35:43.158Z,0.00
2019-05-14T01:36:43.157Z,0.00
2019-05-14T01:37:42.982Z,0.00
2019-05-14T01:38:42.926Z,0.00
2019-05-14T01:39:42.811Z,0.00
2019-05-14T01:40:42.731Z,0.00
2019-05-14T01:41:42.683Z,0.00
2019-05-14T01:42:42.554Z,0.00
2019-05-14T01:43:42.477Z,0.00
2019-05-14T01:44:42.458Z,0.00
2019-05-14T01:45:42.302Z,0.00
2019-05-14T01:46:42.262Z,0.00
2019-05-14T01:47:42.175Z,0.00
2019-05-14T01:48:42.060Z,0.00
2019-05-14T01:49:42.781Z,0.00
2019-05-14T01:50:41.988Z,0.00
2019-05-14T01:51:42.313Z,0.00
2019-05-14T01:52:41.828Z,0.00
2019-05-14T01:53:41.893Z,0.00
2019-05-14T01:54:42.646Z,0.00
2019-05-14T01:55:41.634Z,0.00
2019-05-14T01:56:42.280Z,0.00
2019-05-14T01:57:42.487Z,0.00
2019-05-14T01:58:41.679Z,0.00
2019-05-14T01:59:42.822Z,0.00
2019-05-14T02:00:41.669Z,0.00
2019-05-14T02:01:41.659Z,0.00
2019-05-14T02:02:41.778Z,0.00
2019-05-14T02:03:41.202Z,0.00
2019-05-14T02:04:42.667Z,0.00
2019-05-14T02:05:41.604Z,0.00
2019-05-14T02:06:41.273Z,0.00
2019-05-14T02:07:42.052Z,0.00
2019-05-14T02:08:41.380Z,0.00
2019-05-14T02:09:42.073Z,0.00
2019-05-14T02:10:41.939Z,0.00
2019-05-14T02:11:41.487Z,0.00
2019-05-14T02:12:42.106Z,0.00
2019-05-14T02:13:41.439Z,0.00
2019-05-14T02:14:42.144Z,0.00
2019-05-14T02:15:42.797Z,0.00
2019-05-14T02:16:42.031Z,0.00
2019-05-14T02:17:41.399Z,0.00
2019-05-14T02:18:41.438Z,0.00
2019-05-14T02:19:39.418Z,0.00
2019-05-14T02:20:41.334Z,0.00
2019-05-14T02:21:42.317Z,0.00
2019-05-14T02:22:41.098Z,0.00
2019-05-14T02:23:39.078Z,0.00
2019-05-14T02:24:41.466Z,0.00
2019-05-14T02:25:41.152Z,0.00
2019-05-14T02:26:38.833Z,0.00
2019-05-14T02:27:38.747Z,0.00
2019-05-14T02:28:38.653Z,0.00
2019-05-14T02:29:38.562Z,0.00
2019-05-14T02:30:52.607Z,0.00
2019-05-14T02:31:39.220Z,0.00
2019-05-14T02:32:49.850Z,0.00
2019-05-14T02:33:39.745Z,0.00
2019-05-14T02:34:39.936Z,0.00
2019-05-14T02:35:39.826Z,0.00
2019-05-14T02:36:40.033Z,0.00
2019-05-14T02:37:40.166Z,0.00
2019-05-14T02:38:38.883Z,0.00
2019-05-14T02:39:40.600Z,0.00
2019-05-14T02:40:40.487Z,0.00
2019-05-14T02:41:39.202Z,0.00
2019-05-14T02:42:40.183Z,0.00
2019-05-14T02:43:40.645Z,0.00
2019-05-14T02:44:40.567Z,0.00
2019-05-14T02:45:45.162Z,0.00
2019-05-14T02:46:40.055Z,0.00
2019-05-14T02:47:39.822Z,0.00
2019-05-14T02:48:40.274Z,0.00
2019-05-14T02:49:39.775Z,0.00
2019-05-14T02:50:39.425Z,0.00
2019-05-14T02:51:39.152Z,0.00
2019-05-14T02:52:39.906Z,0.00
2019-05-14T02:53:39.078Z,0.00
2019-05-14T02:54:40.025Z,0.00
2019-05-14T02:55:38.889Z,0.00
2019-05-14T02:56:36.337Z,0.00
2019-05-14T02:57:39.165Z,0.00
2019-05-14T02:58:36.110Z,0.00
2019-05-14T02:59:39.098Z,0.00
2019-05-14T03:00:36.019Z,0.00
2019-05-14T03:01:39.985Z,0.00
2019-05-14T03:02:35.832Z,0.00
2019-05-14T03:03:35.673Z,0.00
2019-05-14T03:04:35.640Z,0.00
2019-05-14T03:05:35.497Z,0.00
2019-05-14T03:06:35.477Z,0.00
2019-05-14T03:07:35.325Z,0.00
2019-05-14T03:08:35.258Z,0.00
2019-05-14T03:09:35.190Z,0.00
2019-05-14T03:10:35.067Z,0.00
2019-05-14T03:11:35.114Z,0.00
2019-05-14T03:12:34.894Z,0.00
2019-05-14T03:13:34.808Z,0.00
2019-05-14T03:14:34.794Z,0.00
2019-05-14T03:15:34.643Z,0.00
2019-05-14T03:16:35.827Z,0.00
2019-05-14T03:17:34.507Z,0.00
2019-05-14T03:18:34.380Z,0.00
2019-05-14T03:19:34.315Z,0.00
2019-05-14T03:20:34.216Z,0.00
2019-05-14T03:21:34.125Z,0.00
2019-05-14T03:22:47.066Z,0.00
2019-05-14T03:23:33.982Z,0.00
2019-05-14T03:24:33.869Z,0.00
2019-05-14T03:25:41.324Z,0.00
2019-05-14T03:26:33.701Z,0.00
2019-05-14T03:27:33.643Z,0.00
2019-05-14T03:28:33.559Z,5.63
2019-05-14T03:29:33.447Z,5.63
2019-05-14T03:30:33.375Z,5.63
2019-05-14T03:31:34.377Z,5.63
2019-05-14T03:32:33.550Z,5.63
2019-05-14T03:33:34.385Z,5.63
2019-05-14T03:34:33.897Z,5.63
2019-05-14T03:35:42.067Z,11.25
2019-05-14T03:36:35.242Z,11.25
2019-05-14T03:37:32.845Z,11.25
2019-05-14T03:38:32.670Z,11.25
2019-05-14T03:39:32.609Z,16.88
2019-05-14T03:40:32.493Z,16.88
2019-05-14T03:41:32.417Z,16.88
2019-05-14T03:42:32.350Z,22.50
2019-05-14T03:43:32.272Z,22.50
2019-05-14T03:44:32.155Z,22.50
2019-05-14T03:45:32.132Z,28.13
2019-05-14T03:46:45.610Z,28.13
2019-05-14T03:47:31.913Z,28.13
2019-05-14T03:48:40.072Z,33.75
2019-05-14T03:49:31.723Z,33.75
2019-05-14T03:50:31.653Z,33.75
2019-05-14T03:51:31.664Z,39.38
2019-05-14T03:52:31.484Z,39.38
2019-05-14T03:53:31.392Z,45.00
2019-05-14T03:54:31.307Z,45.00
2019-05-14T03:55:31.208Z,50.63
2019-05-14T03:56:31.123Z,50.63
2019-05-14T03:57:31.131Z,56.25
2019-05-14T03:58:30.961Z,56.25
2019-05-14T03:59:30.932Z,61.88
2019-05-14T04:00:30.779Z,61.88
2019-05-14T04:01:30.694Z,67.50
2019-05-14T04:02:30.656Z,73.13
2019-05-14T04:03:30.536Z,73.13
2019-05-14T04:04:30.436Z,78.75
2019-05-14T04:05:31.455Z,78.75
2019-05-14T04:06:30.362Z,84.38
2019-05-14T04:07:30.648Z,84.38
2019-05-14T04:08:30.108Z,90.00
2019-05-14T04:09:30.048Z,95.63
2019-05-14T04:10:30.196Z,95.63
2019-05-14T04:11:39.743Z,101.25
2019-05-14T04:12:29.761Z,101.25
2019-05-14T04:13:30.379Z,106.88
2019-05-14T04:14:29.575Z,112.50
2019-05-14T04:15:29.955Z,112.50
2019-05-14T04:16:29.429Z,118.13
2019-05-14T04:17:37.211Z,118.13
2019-05-14T04:18:29.338Z,123.75
2019-05-14T04:19:29.669Z,129.38
2019-05-14T04:20:29.769Z,129.38
2019-05-14T04:21:29.725Z,135.00
2019-05-14T04:22:29.963Z,135.00
2019-05-14T04:23:29.174Z,140.63
2019-05-14T04:24:29.677Z,140.63
2019-05-14T04:25:29.609Z,146.25
2019-05-14T04:26:30.214Z,146.25
2019-05-14T04:27:29.881Z,146.25
2019-05-14T04:28:29.873Z,151.88
2019-05-14T04:29:35.311Z,151.88
2019-05-14T04:30:29.088Z,174.38
2019-05-14T04:31:29.860Z,185.63
2019-05-14T04:32:29.165Z,191.25
2019-05-14T04:33:30.450Z,196.88
2019-05-14T04:34:30.020Z,196.88
2019-05-14T04:35:29.598Z,202.50
2019-05-14T04:36:29.935Z,208.13
2019-05-14T04:37:28.990Z,208.13
2019-05-14T04:38:29.917Z,208.13
2019-05-14T04:39:30.789Z,196.88
2019-05-14T04:40:36.307Z,185.63
2019-05-14T04:41:29.885Z,180.00
2019-05-14T04:42:29.492Z,180.00
2019-05-14T04:43:29.420Z,185.63
2019-05-14T04:44:29.746Z,191.25
2019-05-14T04:45:29.416Z,191.25
2019-05-14T04:46:30.033Z,196.88
2019-05-14T04:47:33.392Z,208.13
2019-05-14T04:48:33.812Z,213.75
2019-05-14T04:49:29.082Z,219.38
2019-05-14T04:50:29.463Z,219.38
2019-05-14T04:51:26.423Z,225.00
2019-05-14T04:52:29.068Z,225.00
2019-05-14T04:53:26.288Z,219.38
2019-05-14T04:54:26.169Z,225.00
2019-05-14T04:55:29.478Z,225.00
2019-05-14T04:56:26.081Z,219.38
2019-05-14T04:57:25.970Z,225.00
2019-05-14T04:58:29.351Z,230.63
2019-05-14T04:59:25.790Z,236.25
2019-05-14T05:00:25.655Z,247.50
2019-05-14T05:01:25.577Z,270.00
2019-05-14T05:02:25.499Z,292.50
2019-05-14T05:03:25.424Z,303.75
2019-05-14T05:04:29.623Z,298.13
2019-05-14T05:05:25.242Z,303.75
2019-05-14T05:06:25.147Z,309.38
2019-05-14T05:07:25.125Z,331.88
2019-05-14T05:08:25.002Z,343.13
2019-05-14T05:09:24.961Z,365.63
2019-05-14T05:10:24.841Z,382.50
2019-05-14T05:11:24.732Z,416.25
2019-05-14T05:12:24.646Z,421.88
2019-05-14T05:13:24.585Z,438.75
2019-05-14T05:14:24.497Z,444.38
2019-05-14T05:15:24.397Z,450.00
2019-05-14T05:16:24.311Z,427.50
2019-05-14T05:17:40.086Z,405.00
2019-05-14T05:18:24.150Z,410.63
2019-05-14T05:19:24.064Z,500.63
2019-05-14T05:20:23.970Z,478.13
2019-05-14T05:21:23.893Z,489.38
2019-05-14T05:22:23.806Z,444.38
2019-05-14T05:23:23.737Z,438.75
2019-05-14T05:24:23.633Z,438.75
2019-05-14T05:25:23.561Z,466.88
2019-05-14T05:26:23.466Z,472.50
2019-05-14T05:27:23.387Z,489.38
2019-05-14T05:28:23.483Z,540.00
2019-05-14T05:29:23.214Z,624.38
2019-05-14T05:30:23.162Z,635.63
2019-05-14T05:31:23.188Z,675.00
2019-05-14T05:32:22.971Z,736.88
2019-05-14T05:33:22.910Z,793.13
2019-05-14T05:34:22.808Z,815.63
2019-05-14T05:35:22.761Z,849.38
2019-05-14T05:36:22.637Z,866.25
2019-05-14T05:37:22.570Z,877.50
2019-05-14T05:38:22.498Z,888.75
2019-05-14T05:39:22.497Z,877.50
2019-05-14T05:40:22.305Z,860.63
2019-05-14T05:41:22.475Z,866.25
2019-05-14T05:42:22.142Z,866.25
2019-05-14T05:43:22.072Z,894.38
2019-05-14T05:44:22.006Z,933.75
2019-05-14T05:45:21.900Z,973.13
2019-05-14T05:46:21.826Z,961.88
2019-05-14T05:47:21.939Z,961.88
2019-05-14T05:48:21.667Z,911.25
2019-05-14T05:49:21.746Z,720.00
2019-05-14T05:50:21.489Z,855.00
2019-05-14T05:51:21.412Z,900.00
2019-05-14T05:52:21.355Z,900.00
2019-05-14T05:53:21.254Z,883.13
2019-05-14T05:54:21.164Z,939.38
2019-05-14T05:55:21.168Z,1057.50
2019-05-14T05:56:21.006Z,1068.75
2019-05-14T05:57:20.924Z,1091.25
2019-05-14T05:58:20.839Z,1096.88
2019-05-14T05:59:20.821Z,1130.63
2019-05-14T06:00:20.682Z,1153.13
2019-05-14T06:01:20.604Z,680.63
2019-05-14T06:02:20.605Z,1198.13
2019-05-14T06:03:20.954Z,1181.25
2019-05-14T06:04:20.369Z,1209.38
2019-05-14T06:05:20.306Z,1215.00
2019-05-14T06:06:20.197Z,1299.38
2019-05-14T06:07:20.118Z,1192.50
2019-05-14T06:08:20.232Z,1321.88
2019-05-14T06:09:19.982Z,1327.50
2019-05-14T06:10:19.865Z,1372.50
2019-05-14T06:11:19.846Z,1372.50
2019-05-14T06:12:19.707Z,1366.88
2019-05-14T06:13:19.634Z,1383.75
2019-05-14T06:14:19.552Z,1417.50
2019-05-14T06:15:19.664Z,1406.25
2019-05-14T06:16:19.379Z,1383.75
2019-05-14T06:17:19.432Z,1383.75
2019-05-14T06:18:21.997Z,1389.38
2019-05-14T06:19:19.156Z,1417.50
2019-05-14T06:20:19.107Z,1395.00
2019-05-14T06:21:19.489Z,1440.00
2019-05-14T06:22:19.151Z,1462.50
2019-05-14T06:23:18.998Z,1451.25
2019-05-14T06:24:19.379Z,1468.13
2019-05-14T06:25:20.932Z,1445.63
2019-05-14T06:26:19.294Z,1361.25
2019-05-14T06:27:18.501Z,1198.13
2019-05-14T06:28:20.977Z,1237.50
2019-05-14T06:29:20.381Z,1321.88
2019-05-14T06:30:18.374Z,1496.25
2019-05-14T06:31:19.164Z,1620.00
2019-05-14T06:32:18.738Z,1603.13
2019-05-14T06:33:19.604Z,1530.00
2019-05-14T06:34:18.702Z,1552.50
2019-05-14T06:35:19.280Z,1575.00
2019-05-14T06:36:19.539Z,1524.38
2019-05-14T06:37:19.144Z,1198.13
2019-05-14T06:38:18.560Z,1490.63
2019-05-14T06:39:18.307Z,1541.25
2019-05-14T06:40:19.298Z,1670.63
2019-05-14T06:41:19.168Z,1704.38
2019-05-14T06:42:19.356Z,1676.25
2019-05-14T06:43:18.973Z,1653.75
2019-05-14T06:44:18.751Z,1681.88
2019-05-14T06:45:18.701Z,1608.75
2019-05-14T06:46:19.313Z,1631.25
2019-05-14T06:47:18.479Z,1704.38
2019-05-14T06:48:28.139Z,1721.25
2019-05-14T06:49:18.338Z,1620.00
2019-05-14T06:50:18.885Z,1642.50
2019-05-14T06:51:19.536Z,1670.63
2019-05-14T06:52:18.557Z,1749.38
2019-05-14T06:53:16.415Z,1833.75
2019-05-14T06:54:19.458Z,1783.13
2019-05-14T06:55:18.077Z,1828.13
2019-05-14T06:56:18.974Z,1856.25
2019-05-14T06:57:18.046Z,1895.63
2019-05-14T06:58:19.845Z,1895.63
2019-05-14T06:59:17.982Z,1996.88
2019-05-14T07:00:15.855Z,2036.25
2019-05-14T07:01:18.320Z,2041.88
2019-05-14T07:02:15.698Z,2002.50
2019-05-14T07:03:17.882Z,1935.00
2019-05-14T07:04:18.031Z,1951.88
2019-05-14T07:05:15.466Z,1985.63
2019-05-14T07:06:15.382Z,2036.25
2019-05-14T07:07:15.296Z,2126.25
2019-05-14T07:08:15.224Z,2176.88
2019-05-14T07:09:15.161Z,2053.13
2019-05-14T07:10:15.061Z,1963.13
2019-05-14T07:11:14.985Z,1788.75
2019-05-14T07:12:14.903Z,1980.00
2019-05-14T07:13:14.837Z,1794.38
2019-05-14T07:14:14.755Z,1535.63
2019-05-14T07:15:14.706Z,2160.00
2019-05-14T07:16:14.609Z,2047.50
2019-05-14T07:17:14.507Z,1839.38
2019-05-14T07:18:14.429Z,2053.13
2019-05-14T07:19:15.894Z,2025.00
2019-05-14T07:20:14.262Z,2086.88
2019-05-14T07:21:14.188Z,2081.25
2019-05-14T07:22:14.109Z,2064.38
2019-05-14T07:23:14.034Z,2238.75
2019-05-14T07:24:13.972Z,2289.38
2019-05-14T07:25:13.867Z,2233.13
2019-05-14T07:26:13.788Z,2205.00
2019-05-14T07:27:13.716Z,2272.50
2019-05-14T07:28:13.637Z,2182.50
2019-05-14T07:29:13.568Z,1878.75
2019-05-14T07:30:13.470Z,2306.25
2019-05-14T07:31:13.404Z,2250.00
2019-05-14T07:32:13.314Z,2261.25
2019-05-14T07:33:13.238Z,2210.63
2019-05-14T07:34:13.180Z,2311.88
2019-05-14T07:35:13.083Z,2306.25
2019-05-14T07:36:13.003Z,2019.38
2019-05-14T07:37:12.922Z,2255.63
2019-05-14T07:38:12.853Z,2233.13
2019-05-14T07:39:12.798Z,2323.13
2019-05-14T07:40:12.702Z,2283.75
2019-05-14T07:41:12.608Z,2401.88
2019-05-14T07:42:12.529Z,2362.50
2019-05-14T07:43:12.452Z,2272.50
2019-05-14T07:44:12.365Z,2160.00
2019-05-14T07:45:12.317Z,2188.13
2019-05-14T07:46:12.211Z,1951.88
2019-05-14T07:47:12.128Z,2092.50
2019-05-14T07:48:12.057Z,2193.75
2019-05-14T07:49:12.074Z,2328.75
2019-05-14T07:50:11.914Z,2491.88
2019-05-14T07:51:11.832Z,2176.88
2019-05-14T07:52:11.748Z,2160.00
2019-05-14T07:53:11.657Z,2430.00
2019-05-14T07:54:11.597Z,2430.00
2019-05-14T07:55:11.521Z,2418.75
2019-05-14T07:56:11.432Z,2503.13
2019-05-14T07:57:11.350Z,2379.38
2019-05-14T07:58:11.310Z,2531.25
2019-05-14T07:59:11.190Z,2593.13
2019-05-14T08:00:11.145Z,2626.88
2019-05-14T08:01:11.035Z,2435.63
2019-05-14T08:02:12.870Z,2143.13
2019-05-14T08:03:10.884Z,2126.25
2019-05-14T08:04:11.887Z,2272.50
2019-05-14T08:05:10.768Z,2441.25
2019-05-14T08:06:10.663Z,2503.13
2019-05-14T08:07:10.579Z,2581.88
2019-05-14T08:08:10.496Z,2581.88
2019-05-14T08:09:10.428Z,2570.63
2019-05-14T08:10:10.347Z,2548.13
2019-05-14T08:11:10.285Z,2503.13
2019-05-14T08:12:12.640Z,2610.00
2019-05-14T08:13:10.105Z,2542.50
2019-05-14T08:14:10.036Z,2452.50
2019-05-14T08:15:17.781Z,2368.13
2019-05-14T08:16:09.874Z,2334.38
2019-05-14T08:17:09.808Z,2401.88
2019-05-14T08:18:09.722Z,2593.13
2019-05-14T08:19:24.375Z,2829.38
2019-05-14T08:20:09.592Z,3003.75
2019-05-14T08:21:09.502Z,2795.63
2019-05-14T08:22:09.734Z,2666.25
2019-05-14T08:23:09.337Z,2649.38
2019-05-14T08:24:09.269Z,2649.38
2019-05-14T08:25:09.203Z,2784.38
2019-05-14T08:26:09.112Z,2835.00
2019-05-14T08:27:09.044Z,2857.50
2019-05-14T08:28:08.958Z,2857.50
2019-05-14T08:29:08.878Z,2930.63
2019-05-14T08:30:08.828Z,2829.38
2019-05-14T08:31:09.452Z,2913.75
2019-05-14T08:32:09.051Z,3166.88
2019-05-14T08:33:09.022Z,3318.75
2019-05-14T08:34:09.145Z,3296.25
2019-05-14T08:35:09.048Z,3200.63
2019-05-14T08:36:08.951Z,3144.38
2019-05-14T08:37:08.417Z,3144.38
2019-05-14T08:38:11.719Z,3290.63
2019-05-14T08:39:08.827Z,3301.88
2019-05-14T08:40:09.489Z,3318.75
2019-05-14T08:41:08.577Z,3408.75
2019-05-14T08:42:08.464Z,3380.63
2019-05-14T08:43:08.704Z,3279.38
2019-05-14T08:44:08.547Z,2975.63
2019-05-14T08:45:10.661Z,3003.75
2019-05-14T08:46:08.261Z,3110.63
2019-05-14T08:47:09.575Z,3133.13
2019-05-14T08:48:09.227Z,3150.00
2019-05-14T08:49:08.944Z,3200.63
2019-05-14T08:50:09.175Z,3178.13
2019-05-14T08:51:09.151Z,3268.13
2019-05-14T08:52:08.870Z,3279.38
2019-05-14T08:53:09.090Z,3211.88
2019-05-14T08:54:08.229Z,3116.25
2019-05-14T08:55:10.895Z,3217.50
2019-05-14T08:56:08.717Z,3386.25
2019-05-14T08:57:09.335Z,3459.38
2019-05-14T08:58:13.326Z,3414.38
2019-05-14T08:59:08.709Z,3358.13
2019-05-14T09:00:13.491Z,3346.88
2019-05-14T09:01:08.180Z,3425.63
2019-05-14T09:02:10.097Z,3510.00
2019-05-14T09:03:08.353Z,3560.63
2019-05-14T09:04:08.808Z,3594.38
2019-05-14T09:05:09.851Z,3543.75
2019-05-14T09:06:06.135Z,3431.25
2019-05-14T09:07:06.066Z,3414.38
2019-05-14T09:08:08.617Z,3442.50
2019-05-14T09:09:05.915Z,3515.63
2019-05-14T09:10:08.476Z,3532.50
2019-05-14T09:11:05.781Z,3538.13
2019-05-14T09:12:12.187Z,3521.25
2019-05-14T09:13:05.632Z,3706.88
2019-05-14T09:14:05.548Z,3656.25
2019-05-14T09:15:05.508Z,3633.75
2019-05-14T09:16:05.403Z,3690.00
2019-05-14T09:17:05.332Z,3481.88
2019-05-14T09:18:05.290Z,3684.38
2019-05-14T09:19:05.185Z,3690.00
2019-05-14T09:20:07.204Z,3746.25
2019-05-14T09:21:05.063Z,3802.50
2019-05-14T09:22:04.970Z,3712.50
2019-05-14T09:23:04.891Z,3791.25
2019-05-14T09:24:04.842Z,3808.13
2019-05-14T09:25:04.746Z,3763.13
2019-05-14T09:26:04.690Z,3684.38
2019-05-14T09:27:05.562Z,3622.50
2019-05-14T09:28:04.553Z,3706.88
2019-05-14T09:29:18.157Z,3875.63
2019-05-14T09:30:04.392Z,4066.88
2019-05-14T09:31:04.318Z,4010.63
2019-05-14T09:32:04.233Z,4010.63
2019-05-14T09:33:04.170Z,3948.75
2019-05-14T09:34:04.096Z,3858.75
2019-05-14T09:35:04.034Z,3819.38
2019-05-14T09:36:14.800Z,3808.13
2019-05-14T09:37:03.880Z,3909.38
2019-05-14T09:38:03.808Z,3993.75
2019-05-14T09:39:04.732Z,3858.75
2019-05-14T09:40:03.658Z,4072.50
2019-05-14T09:41:11.398Z,4156.88
2019-05-14T09:42:03.517Z,4151.25
2019-05-14T09:43:03.451Z,4072.50
2019-05-14T09:44:03.368Z,3988.13
2019-05-14T09:45:03.335Z,3976.88
2019-05-14T09:46:03.248Z,3982.50
2019-05-14T09:47:03.148Z,3909.38
2019-05-14T09:48:03.086Z,3870.00
2019-05-14T09:49:03.018Z,3903.75
2019-05-14T09:50:16.386Z,4106.25
2019-05-14T09:51:02.878Z,2109.38
2019-05-14T09:52:02.800Z,4303.13
2019-05-14T09:53:02.723Z,4140.00
2019-05-14T09:54:02.649Z,4016.25
2019-05-14T09:55:02.580Z,4044.38
2019-05-14T09:56:02.531Z,4151.25
2019-05-14T09:57:02.458Z,4241.25
2019-05-14T09:58:02.365Z,4258.13
2019-05-14T09:59:02.290Z,4207.50
2019-05-14T10:00:02.214Z,4061.25
2019-05-14T10:01:02.164Z,3931.88
2019-05-14T10:02:02.063Z,3841.88
2019-05-14T10:03:02.004Z,1957.50
2019-05-14T10:04:01.926Z,1181.25
2019-05-14T10:05:01.860Z,3870.00
2019-05-14T10:06:01.787Z,3960.00
2019-05-14T10:07:01.709Z,4123.13
2019-05-14T10:08:01.631Z,4201.88
2019-05-14T10:09:01.555Z,4134.38
2019-05-14T10:10:01.570Z,4083.75
2019-05-14T10:11:01.435Z,4089.38
2019-05-14T10:12:01.342Z,4185.00
2019-05-14T10:13:01.864Z,4314.38
2019-05-14T10:14:01.193Z,4336.88
2019-05-14T10:15:01.122Z,4252.50
2019-05-14T10:16:01.067Z,4140.00
2019-05-14T10:17:00.973Z,4168.13
2019-05-14T10:18:00.919Z,4207.50
2019-05-14T10:19:00.843Z,4348.13
2019-05-14T10:20:00.756Z,4522.50
2019-05-14T10:21:00.694Z,4494.38
2019-05-14T10:22:00.617Z,4483.13
2019-05-14T10:23:00.537Z,4466.25
2019-05-14T10:24:00.465Z,4426.88
2019-05-14T10:25:00.400Z,4460.63
2019-05-14T10:26:00.340Z,4449.38
2019-05-14T10:27:00.258Z,4185.00
2019-05-14T10:28:00.186Z,3920.63
2019-05-14T10:29:00.110Z,3684.38
2019-05-14T10:30:00.036Z,1186.88
2019-05-14T10:31:03.342Z,1462.50
2019-05-14T10:31:59.895Z,3521.25
2019-05-14T10:33:09.645Z,1141.88
2019-05-14T10:33:59.752Z,1012.50
2019-05-14T10:34:59.681Z,961.88
2019-05-14T10:35:59.629Z,1620.00
2019-05-14T10:36:59.530Z,4432.50
2019-05-14T10:37:59.976Z,4370.63
2019-05-14T10:38:59.381Z,4370.63
2019-05-14T10:39:59.307Z,4483.13
2019-05-14T10:40:59.247Z,4567.50
2019-05-14T10:41:59.155Z,4010.63
2019-05-14T10:42:59.079Z,1473.75
2019-05-14T10:43:59.193Z,4680.00
2019-05-14T10:44:58.935Z,4595.63
2019-05-14T10:45:58.869Z,4348.13
2019-05-14T10:46:58.793Z,4185.00
2019-05-14T10:47:58.765Z,4106.25
2019-05-14T10:49:14.663Z,4213.13
2019-05-14T10:49:58.563Z,4370.63
2019-05-14T10:51:03.288Z,4438.13
2019-05-14T10:51:58.659Z,4370.63
2019-05-14T10:52:59.446Z,4415.63
2019-05-14T10:53:59.385Z,4381.88
2019-05-14T10:54:59.067Z,4308.75
2019-05-14T10:55:58.342Z,4303.13
2019-05-14T10:56:59.069Z,4365.00
2019-05-14T10:57:58.577Z,4505.63
2019-05-14T10:58:58.417Z,4539.38
2019-05-14T10:59:59.170Z,4680.00
2019-05-14T11:00:58.862Z,4713.75
2019-05-14T11:01:57.672Z,1085.63
2019-05-14T11:02:57.607Z,4387.50
2019-05-14T11:03:57.530Z,4376.25
2019-05-14T11:04:58.671Z,4381.88
2019-05-14T11:05:58.791Z,4365.00
2019-05-14T11:06:57.321Z,4516.88
2019-05-14T11:07:58.728Z,4550.63
2019-05-14T11:08:57.170Z,4505.63
2019-05-14T11:09:57.090Z,4342.50
2019-05-14T11:11:03.216Z,1575.00
2019-05-14T11:11:58.373Z,1276.88
2019-05-14T11:12:59.332Z,1462.50
2019-05-14T11:13:56.789Z,4449.38
2019-05-14T11:14:56.739Z,4494.38
2019-05-14T11:15:59.276Z,4539.38
2019-05-14T11:16:59.025Z,4567.50
2019-05-14T11:17:56.510Z,4550.63
2019-05-14T11:18:57.549Z,4455.00
2019-05-14T11:19:58.520Z,4522.50
2019-05-14T11:21:16.233Z,4483.13
2019-05-14T11:21:57.948Z,4415.63
2019-05-14T11:22:58.322Z,4443.75
2019-05-14T11:23:58.363Z,4528.13
2019-05-14T11:24:58.889Z,4578.75
2019-05-14T11:25:58.041Z,4674.38
2019-05-14T11:26:55.873Z,4736.25
2019-05-14T11:27:55.770Z,4775.63
2019-05-14T11:28:58.348Z,4736.25
2019-05-14T11:29:55.632Z,4685.63
2019-05-14T11:30:55.566Z,4623.75
2019-05-14T11:31:55.499Z,4623.75
2019-05-14T11:32:55.414Z,4561.88
2019-05-14T11:33:55.353Z,4590.00
2019-05-14T11:34:55.264Z,4550.63
2019-05-14T11:35:55.197Z,3870.00
2019-05-14T11:36:55.138Z,4404.38
2019-05-14T11:37:55.068Z,4376.25
2019-05-14T11:38:54.980Z,4387.50
2019-05-14T11:39:54.909Z,4449.38
2019-05-14T11:40:54.849Z,4438.13
2019-05-14T11:41:54.784Z,4438.13
2019-05-14T11:42:54.696Z,4426.88
2019-05-14T11:43:54.631Z,2193.75
2019-05-14T11:44:54.551Z,4466.25
2019-05-14T11:45:54.482Z,4533.75
2019-05-14T11:46:58.318Z,4471.88
2019-05-14T11:47:54.339Z,4500.00
2019-05-14T11:48:54.269Z,4516.88
2019-05-14T11:49:54.202Z,4567.50
2019-05-14T11:50:54.123Z,4561.88
2019-05-14T11:52:04.071Z,4533.75
2019-05-14T11:52:53.979Z,4561.88
2019-05-14T11:53:53.921Z,4533.75
2019-05-14T11:54:53.850Z,4590.00
2019-05-14T11:55:53.777Z,4590.00
2019-05-14T11:56:53.723Z,4539.38
2019-05-14T11:57:53.627Z,4606.88
2019-05-14T11:58:53.568Z,1338.75
2019-05-14T11:59:53.499Z,4556.25
2019-05-14T12:00:53.414Z,4539.38
2019-05-14T12:01:55.061Z,4556.25
2019-05-14T12:02:53.274Z,4606.88
2019-05-14T12:03:53.193Z,4657.50
2019-05-14T12:04:53.127Z,4786.88
2019-05-14T12:05:53.194Z,4798.13
2019-05-14T12:06:53.024Z,4792.50
2019-05-14T12:07:52.905Z,4747.50
2019-05-14T12:08:52.847Z,4606.88
2019-05-14T12:09:52.773Z,4494.38
2019-05-14T12:10:52.692Z,4528.13
2019-05-14T12:11:52.641Z,4691.25
2019-05-14T12:12:52.545Z,4455.00
2019-05-14T12:13:52.475Z,2126.25
2019-05-14T12:14:52.411Z,4601.25
2019-05-14T12:15:52.340Z,4500.00
2019-05-14T12:16:52.283Z,4505.63
2019-05-14T12:17:52.199Z,4522.50
2019-05-14T12:18:52.128Z,4590.00
2019-05-14T12:19:52.053Z,4595.63
2019-05-14T12:20:51.981Z,4573.13
2019-05-14T12:22:03.712Z,4612.50
2019-05-14T12:22:51.838Z,4455.00
2019-05-14T12:23:51.765Z,4314.38
2019-05-14T12:24:51.698Z,3960.00
2019-05-14T12:25:51.618Z,3853.13
2019-05-14T12:26:51.575Z,3667.50
2019-05-14T12:27:51.475Z,3414.38
2019-05-14T12:28:51.423Z,3251.25
2019-05-14T12:29:51.336Z,3043.13